sensor_id;sensor_type;location;lat;lon;timestamp;P1;durP1;ratioP1;P2;durP2;ratioP2
10761;SDS011;5433;50.862;4.320;2022-12-20T00:02:13;3.40;;;2.08;;
10761;SDS011;5433;50.862;4.320;2022-12-20T00:04:39;2.50;;;1.90;;
10761;SDS011;5433;50.862;4.320;2022-12-20T00:07:05;3.33;;;2.08;;
10761;SDS011;5433;50.862;4.320;2022-12-20T00:09:31;4.65;;;2.35;;
10761;SDS011;5433;50.862;4.320;2022-12-20T00:11:56;2.97;;;2.20;;
10761;SDS011;5433;50.862;4.320;2022-12-20T00:14:23;2.90;;;1.90;;
10761;SDS011;5433;50.862;4.320;2022-12-20T00:16:49;3.65;;;2.30;;
10761;SDS011;5433;50.862;4.320;2022-12-20T00:19:14;2.65;;;1.85;;
10761;SDS011;5433;50.862;4.320;2022-12-20T00:21:40;2.53;;;2.00;;
10761;SDS011;5433;50.862;4.320;2022-12-20T00:24:06;3.92;;;2.55;;
10761;SDS011;5433;50.862;4.320;2022-12-20T00:26:33;4.05;;;2.10;;
10761;SDS011;5433;50.862;4.320;2022-12-20T00:28:59;2.92;;;2.00;;
10761;SDS011;5433;50.862;4.320;2022-12-20T00:31:26;4.82;;;2.60;;
10761;SDS011;5433;50.862;4.320;2022-12-20T00:33:53;2.72;;;1.90;;
10761;SDS011;5433;50.862;4.320;2022-12-20T00:36:20;3.00;;;2.20;;
10761;SDS011;5433;50.862;4.320;2022-12-20T00:38:47;2.75;;;2.20;;
10761;SDS011;5433;50.862;4.320;2022-12-20T00:41:15;3.45;;;2.10;;
10761;SDS011;5433;50.862;4.320;2022-12-20T00:43:41;2.65;;;2.15;;
10761;SDS011;5433;50.862;4.320;2022-12-20T00:46:07;3.08;;;2.30;;
10761;SDS011;5433;50.862;4.320;2022-12-20T00:48:34;2.50;;;2.22;;
10761;SDS011;5433;50.862;4.320;2022-12-20T00:51:01;3.30;;;2.00;;
10761;SDS011;5433;50.862;4.320;2022-12-20T00:53:27;2.97;;;1.95;;
10761;SDS011;5433;50.862;4.320;2022-12-20T00:55:54;4.22;;;2.00;;
10761;SDS011;5433;50.862;4.320;2022-12-20T00:58:20;2.70;;;1.98;;
10761;SDS011;5433;50.862;4.320;2022-12-20T01:00:46;3.25;;;2.00;;
10761;SDS011;5433;50.862;4.320;2022-12-20T01:03:11;2.78;;;1.90;;
10761;SDS011;5433;50.862;4.320;2022-12-20T01:05:37;3.20;;;1.98;;
10761;SDS011;5433;50.862;4.320;2022-12-20T01:08:04;3.05;;;2.00;;
10761;SDS011;5433;50.862;4.320;2022-12-20T01:10:30;3.33;;;2.00;;
10761;SDS011;5433;50.862;4.320;2022-12-20T01:12:56;1.92;;;1.77;;
10761;SDS011;5433;50.862;4.320;2022-12-20T01:15:22;2.67;;;2.17;;
10761;SDS011;5433;50.862;4.320;2022-12-20T01:17:48;3.05;;;2.08;;
10761;SDS011;5433;50.862;4.320;2022-12-20T01:20:15;2.30;;;2.00;;
10761;SDS011;5433;50.862;4.320;2022-12-20T01:22:41;2.17;;;1.92;;
10761;SDS011;5433;50.862;4.320;2022-12-20T01:25:07;2.30;;;1.70;;
10761;SDS011;5433;50.862;4.320;2022-12-20T01:27:33;2.45;;;1.90;;
10761;SDS011;5433;50.862;4.320;2022-12-20T01:29:59;2.60;;;2.10;;
10761;SDS011;5433;50.862;4.320;2022-12-20T01:32:25;2.58;;;2.00;;
10761;SDS011;5433;50.862;4.320;2022-12-20T01:34:52;2.28;;;2.08;;
10761;SDS011;5433;50.862;4.320;2022-12-20T01:37:18;2.72;;;2.05;;
10761;SDS011;5433;50.862;4.320;2022-12-20T01:39:44;4.60;;;2.10;;
10761;SDS011;5433;50.862;4.320;2022-12-20T01:42:13;2.72;;;2.00;;
10761;SDS011;5433;50.862;4.320;2022-12-20T01:47:05;2.95;;;2.17;;
10761;SDS011;5433;50.862;4.320;2022-12-20T01:49:37;3.15;;;2.15;;
10761;SDS011;5433;50.862;4.320;2022-12-20T01:52:05;2.72;;;2.10;;
10761;SDS011;5433;50.862;4.320;2022-12-20T01:54:40;2.53;;;2.05;;
10761;SDS011;5433;50.862;4.320;2022-12-20T01:57:08;3.35;;;1.98;;
10761;SDS011;5433;50.862;4.320;2022-12-20T01:59:36;4.03;;;1.95;;
10761;SDS011;5433;50.862;4.320;2022-12-20T02:02:05;2.65;;;2.15;;
10761;SDS011;5433;50.862;4.320;2022-12-20T02:04:33;3.50;;;2.17;;
10761;SDS011;5433;50.862;4.320;2022-12-20T02:06:59;4.32;;;2.30;;
10761;SDS011;5433;50.862;4.320;2022-12-20T02:09:25;3.00;;;2.15;;
10761;SDS011;5433;50.862;4.320;2022-12-20T02:19:51;2.78;;;2.05;;
10761;SDS011;5433;50.862;4.320;2022-12-20T02:22:25;4.90;;;2.03;;
10761;SDS011;5433;50.862;4.320;2022-12-20T02:27:41;3.70;;;2.28;;
10761;SDS011;5433;50.862;4.320;2022-12-20T02:30:17;3.38;;;2.10;;
10761;SDS011;5433;50.862;4.320;2022-12-20T02:35:21;3.50;;;1.90;;
10761;SDS011;5433;50.862;4.320;2022-12-20T02:37:48;3.42;;;1.98;;
10761;SDS011;5433;50.862;4.320;2022-12-20T02:40:15;3.33;;;1.90;;
10761;SDS011;5433;50.862;4.320;2022-12-20T02:42:42;2.95;;;2.00;;
10761;SDS011;5433;50.862;4.320;2022-12-20T02:45:09;4.20;;;2.05;;
10761;SDS011;5433;50.862;4.320;2022-12-20T02:47:50;2.25;;;1.92;;
10761;SDS011;5433;50.862;4.320;2022-12-20T02:50:19;2.20;;;2.00;;
10761;SDS011;5433;50.862;4.320;2022-12-20T02:52:46;4.40;;;2.10;;
10761;SDS011;5433;50.862;4.320;2022-12-20T02:55:12;2.15;;;1.95;;
10761;SDS011;5433;50.862;4.320;2022-12-20T02:57:49;4.43;;;2.03;;
10761;SDS011;5433;50.862;4.320;2022-12-20T03:00:20;3.83;;;1.88;;
10761;SDS011;5433;50.862;4.320;2022-12-20T03:02:47;2.75;;;2.10;;
10761;SDS011;5433;50.862;4.320;2022-12-20T03:05:33;3.13;;;2.20;;
10761;SDS011;5433;50.862;4.320;2022-12-20T03:08:00;4.57;;;2.10;;
10761;SDS011;5433;50.862;4.320;2022-12-20T03:10:26;5.03;;;1.90;;
10761;SDS011;5433;50.862;4.320;2022-12-20T03:12:52;3.10;;;1.75;;
10761;SDS011;5433;50.862;4.320;2022-12-20T03:15:18;2.63;;;2.08;;
10761;SDS011;5433;50.862;4.320;2022-12-20T03:17:44;2.78;;;1.90;;
10761;SDS011;5433;50.862;4.320;2022-12-20T03:20:10;3.42;;;1.70;;
10761;SDS011;5433;50.862;4.320;2022-12-20T03:22:36;2.67;;;1.90;;
10761;SDS011;5433;50.862;4.320;2022-12-20T03:25:03;3.10;;;1.90;;
10761;SDS011;5433;50.862;4.320;2022-12-20T03:27:29;2.58;;;2.08;;
10761;SDS011;5433;50.862;4.320;2022-12-20T03:29:55;3.08;;;2.03;;
10761;SDS011;5433;50.862;4.320;2022-12-20T03:32:21;4.70;;;1.95;;
10761;SDS011;5433;50.862;4.320;2022-12-20T03:34:47;2.85;;;1.83;;
10761;SDS011;5433;50.862;4.320;2022-12-20T03:37:13;2.20;;;1.90;;
10761;SDS011;5433;50.862;4.320;2022-12-20T03:39:40;2.30;;;1.80;;
10761;SDS011;5433;50.862;4.320;2022-12-20T03:42:06;2.83;;;1.90;;
10761;SDS011;5433;50.862;4.320;2022-12-20T03:44:35;2.20;;;1.83;;
10761;SDS011;5433;50.862;4.320;2022-12-20T03:47:01;2.15;;;1.90;;
10761;SDS011;5433;50.862;4.320;2022-12-20T03:49:27;2.92;;;1.92;;
10761;SDS011;5433;50.862;4.320;2022-12-20T03:51:53;4.68;;;2.10;;
10761;SDS011;5433;50.862;4.320;2022-12-20T03:54:19;3.35;;;2.15;;
10761;SDS011;5433;50.862;4.320;2022-12-20T03:56:45;2.05;;;1.60;;
10761;SDS011;5433;50.862;4.320;2022-12-20T03:59:11;3.67;;;1.80;;
10761;SDS011;5433;50.862;4.320;2022-12-20T04:01:37;3.92;;;2.00;;
10761;SDS011;5433;50.862;4.320;2022-12-20T04:04:03;4.03;;;2.00;;
10761;SDS011;5433;50.862;4.320;2022-12-20T04:06:29;2.80;;;1.88;;
10761;SDS011;5433;50.862;4.320;2022-12-20T04:08:55;2.83;;;2.10;;
10761;SDS011;5433;50.862;4.320;2022-12-20T04:11:21;4.43;;;1.63;;
10761;SDS011;5433;50.862;4.320;2022-12-20T04:13:48;2.35;;;1.42;;
10761;SDS011;5433;50.862;4.320;2022-12-20T04:16:21;2.15;;;1.77;;
10761;SDS011;5433;50.862;4.320;2022-12-20T04:18:48;2.58;;;1.65;;
10761;SDS011;5433;50.862;4.320;2022-12-20T04:21:14;3.15;;;2.10;;
10761;SDS011;5433;50.862;4.320;2022-12-20T04:23:40;4.97;;;1.90;;
10761;SDS011;5433;50.862;4.320;2022-12-20T04:26:07;4.30;;;2.00;;
10761;SDS011;5433;50.862;4.320;2022-12-20T04:28:33;4.68;;;2.10;;
10761;SDS011;5433;50.862;4.320;2022-12-20T04:30:59;2.35;;;1.80;;
10761;SDS011;5433;50.862;4.320;2022-12-20T04:33:25;3.70;;;1.90;;
10761;SDS011;5433;50.862;4.320;2022-12-20T04:35:52;2.83;;;1.73;;
10761;SDS011;5433;50.862;4.320;2022-12-20T04:38:18;3.03;;;1.92;;
10761;SDS011;5433;50.862;4.320;2022-12-20T04:40:47;3.13;;;1.67;;
10761;SDS011;5433;50.862;4.320;2022-12-20T04:43:13;2.22;;;1.85;;
10761;SDS011;5433;50.862;4.320;2022-12-20T04:45:39;2.78;;;2.00;;
10761;SDS011;5433;50.862;4.320;2022-12-20T04:48:05;2.47;;;1.60;;
10761;SDS011;5433;50.862;4.320;2022-12-20T04:50:32;3.10;;;1.80;;
10761;SDS011;5433;50.862;4.320;2022-12-20T04:52:58;3.70;;;1.60;;
10761;SDS011;5433;50.862;4.320;2022-12-20T04:55:42;3.55;;;1.77;;
10761;SDS011;5433;50.862;4.320;2022-12-20T04:58:08;3.65;;;1.80;;
10761;SDS011;5433;50.862;4.320;2022-12-20T05:00:34;3.38;;;1.77;;
10761;SDS011;5433;50.862;4.320;2022-12-20T05:03:00;3.83;;;1.50;;
10761;SDS011;5433;50.862;4.320;2022-12-20T05:05:26;2.03;;;1.50;;
10761;SDS011;5433;50.862;4.320;2022-12-20T05:07:52;5.53;;;1.60;;
10761;SDS011;5433;50.862;4.320;2022-12-20T05:10:18;2.78;;;1.60;;
10761;SDS011;5433;50.862;4.320;2022-12-20T05:12:44;1.67;;;1.40;;
10761;SDS011;5433;50.862;4.320;2022-12-20T05:15:11;2.53;;;1.60;;
10761;SDS011;5433;50.862;4.320;2022-12-20T05:17:37;3.83;;;1.90;;
10761;SDS011;5433;50.862;4.320;2022-12-20T05:20:04;2.05;;;1.48;;
10761;SDS011;5433;50.862;4.320;2022-12-20T05:22:30;2.55;;;1.45;;
10761;SDS011;5433;50.862;4.320;2022-12-20T05:25:15;3.38;;;1.70;;
10761;SDS011;5433;50.862;4.320;2022-12-20T05:27:59;2.78;;;1.70;;
10761;SDS011;5433;50.862;4.320;2022-12-20T05:30:25;2.55;;;1.55;;
10761;SDS011;5433;50.862;4.320;2022-12-20T05:32:51;2.92;;;1.60;;
10761;SDS011;5433;50.862;4.320;2022-12-20T05:35:17;4.95;;;1.80;;
10761;SDS011;5433;50.862;4.320;2022-12-20T05:37:43;2.78;;;1.60;;
10761;SDS011;5433;50.862;4.320;2022-12-20T05:40:10;2.15;;;1.55;;
10761;SDS011;5433;50.862;4.320;2022-12-20T05:42:36;2.97;;;1.50;;
10761;SDS011;5433;50.862;4.320;2022-12-20T05:45:03;2.90;;;1.60;;
10761;SDS011;5433;50.862;4.320;2022-12-20T05:47:29;2.17;;;1.50;;
10761;SDS011;5433;50.862;4.320;2022-12-20T05:49:58;3.53;;;1.45;;
10761;SDS011;5433;50.862;4.320;2022-12-20T05:52:24;2.88;;;1.45;;
10761;SDS011;5433;50.862;4.320;2022-12-20T05:54:50;2.15;;;1.35;;
10761;SDS011;5433;50.862;4.320;2022-12-20T05:57:16;2.08;;;1.38;;
10761;SDS011;5433;50.862;4.320;2022-12-20T05:59:43;3.38;;;1.60;;
10761;SDS011;5433;50.862;4.320;2022-12-20T06:02:10;2.15;;;1.50;;
10761;SDS011;5433;50.862;4.320;2022-12-20T06:04:36;3.38;;;1.63;;
10761;SDS011;5433;50.862;4.320;2022-12-20T06:07:03;1.85;;;1.60;;
10761;SDS011;5433;50.862;4.320;2022-12-20T06:09:29;2.08;;;1.55;;
10761;SDS011;5433;50.862;4.320;2022-12-20T06:11:55;4.35;;;1.60;;
10761;SDS011;5433;50.862;4.320;2022-12-20T06:14:21;2.67;;;1.40;;
10761;SDS011;5433;50.862;4.320;2022-12-20T06:16:47;2.30;;;1.40;;
10761;SDS011;5433;50.862;4.320;2022-12-20T06:19:14;2.40;;;1.50;;
10761;SDS011;5433;50.862;4.320;2022-12-20T06:21:40;2.10;;;1.63;;
10761;SDS011;5433;50.862;4.320;2022-12-20T06:24:06;2.33;;;1.50;;
10761;SDS011;5433;50.862;4.320;2022-12-20T06:26:32;2.78;;;1.38;;
10761;SDS011;5433;50.862;4.320;2022-12-20T06:29:01;2.00;;;1.40;;
10761;SDS011;5433;50.862;4.320;2022-12-20T06:31:27;2.95;;;1.40;;
10761;SDS011;5433;50.862;4.320;2022-12-20T06:33:53;4.07;;;1.58;;
10761;SDS011;5433;50.862;4.320;2022-12-20T06:36:19;1.90;;;1.50;;
10761;SDS011;5433;50.862;4.320;2022-12-20T06:38:45;1.85;;;1.20;;
10761;SDS011;5433;50.862;4.320;2022-12-20T06:41:11;3.10;;;1.20;;
10761;SDS011;5433;50.862;4.320;2022-12-20T06:43:37;4.18;;;1.50;;
10761;SDS011;5433;50.862;4.320;2022-12-20T06:46:03;3.10;;;1.48;;
10761;SDS011;5433;50.862;4.320;2022-12-20T06:48:29;3.63;;;1.33;;
10761;SDS011;5433;50.862;4.320;2022-12-20T06:50:55;1.90;;;1.40;;
10761;SDS011;5433;50.862;4.320;2022-12-20T06:53:21;1.50;;;1.10;;
10761;SDS011;5433;50.862;4.320;2022-12-20T06:55:47;1.50;;;1.40;;
10761;SDS011;5433;50.862;4.320;2022-12-20T06:58:19;2.45;;;1.25;;
10761;SDS011;5433;50.862;4.320;2022-12-20T07:00:45;2.67;;;1.50;;
10761;SDS011;5433;50.862;4.320;2022-12-20T07:03:11;1.88;;;1.10;;
10761;SDS011;5433;50.862;4.320;2022-12-20T07:05:37;1.50;;;1.40;;
10761;SDS011;5433;50.862;4.320;2022-12-20T07:08:03;3.90;;;1.42;;
10761;SDS011;5433;50.862;4.320;2022-12-20T07:10:30;4.13;;;1.40;;
10761;SDS011;5433;50.862;4.320;2022-12-20T07:12:56;3.15;;;1.70;;
10761;SDS011;5433;50.862;4.320;2022-12-20T07:15:22;2.33;;;1.70;;
10761;SDS011;5433;50.862;4.320;2022-12-20T07:17:48;2.80;;;1.63;;
10761;SDS011;5433;50.862;4.320;2022-12-20T07:20:15;2.40;;;1.33;;
10761;SDS011;5433;50.862;4.320;2022-12-20T07:22:41;2.55;;;1.40;;
10761;SDS011;5433;50.862;4.320;2022-12-20T07:25:07;2.28;;;1.60;;
10761;SDS011;5433;50.862;4.320;2022-12-20T07:27:33;3.10;;;1.60;;
10761;SDS011;5433;50.862;4.320;2022-12-20T07:29:59;2.60;;;1.67;;
10761;SDS011;5433;50.862;4.320;2022-12-20T07:32:25;2.60;;;1.65;;
10761;SDS011;5433;50.862;4.320;2022-12-20T07:34:51;6.40;;;2.00;;
10761;SDS011;5433;50.862;4.320;2022-12-20T07:37:17;2.65;;;1.38;;
10761;SDS011;5433;50.862;4.320;2022-12-20T07:39:43;2.65;;;1.52;;
10761;SDS011;5433;50.862;4.320;2022-12-20T07:42:10;2.72;;;1.60;;
10761;SDS011;5433;50.862;4.320;2022-12-20T07:44:36;2.90;;;1.38;;
10761;SDS011;5433;50.862;4.320;2022-12-20T07:47:02;3.05;;;1.50;;
10761;SDS011;5433;50.862;4.320;2022-12-20T07:49:28;3.80;;;1.85;;
10761;SDS011;5433;50.862;4.320;2022-12-20T07:51:54;3.45;;;1.90;;
10761;SDS011;5433;50.862;4.320;2022-12-20T07:54:26;3.75;;;1.77;;
10761;SDS011;5433;50.862;4.320;2022-12-20T07:56:54;3.17;;;2.05;;
10761;SDS011;5433;50.862;4.320;2022-12-20T07:59:23;2.83;;;1.63;;
10761;SDS011;5433;50.862;4.320;2022-12-20T08:01:50;2.72;;;1.70;;
10761;SDS011;5433;50.862;4.320;2022-12-20T08:04:17;3.20;;;1.55;;
10761;SDS011;5433;50.862;4.320;2022-12-20T08:06:43;3.42;;;1.73;;
10761;SDS011;5433;50.862;4.320;2022-12-20T08:09:10;4.32;;;2.00;;
10761;SDS011;5433;50.862;4.320;2022-12-20T08:11:37;4.63;;;1.75;;
10761;SDS011;5433;50.862;4.320;2022-12-20T08:14:04;2.45;;;1.70;;
10761;SDS011;5433;50.862;4.320;2022-12-20T08:16:32;4.25;;;1.95;;
10761;SDS011;5433;50.862;4.320;2022-12-20T08:18:58;4.25;;;2.20;;
10761;SDS011;5433;50.862;4.320;2022-12-20T08:21:24;5.20;;;2.10;;
10761;SDS011;5433;50.862;4.320;2022-12-20T08:23:50;3.35;;;2.10;;
10761;SDS011;5433;50.862;4.320;2022-12-20T08:26:16;2.70;;;1.90;;
10761;SDS011;5433;50.862;4.320;2022-12-20T08:28:42;4.97;;;2.13;;
10761;SDS011;5433;50.862;4.320;2022-12-20T08:31:08;4.00;;;1.80;;
10761;SDS011;5433;50.862;4.320;2022-12-20T08:33:35;2.67;;;1.67;;
10761;SDS011;5433;50.862;4.320;2022-12-20T08:36:03;3.78;;;2.20;;
10761;SDS011;5433;50.862;4.320;2022-12-20T08:38:30;3.50;;;1.80;;
10761;SDS011;5433;50.862;4.320;2022-12-20T08:41:03;3.13;;;1.90;;
10761;SDS011;5433;50.862;4.320;2022-12-20T08:43:30;4.90;;;2.08;;
10761;SDS011;5433;50.862;4.320;2022-12-20T08:45:56;4.82;;;2.00;;
10761;SDS011;5433;50.862;4.320;2022-12-20T08:48:22;4.45;;;1.77;;
10761;SDS011;5433;50.862;4.320;2022-12-20T08:50:55;5.53;;;1.98;;
10761;SDS011;5433;50.862;4.320;2022-12-20T08:53:21;4.85;;;2.25;;
10761;SDS011;5433;50.862;4.320;2022-12-20T08:55:47;2.67;;;2.00;;
10761;SDS011;5433;50.862;4.320;2022-12-20T08:58:13;2.35;;;1.63;;
10761;SDS011;5433;50.862;4.320;2022-12-20T09:00:40;3.72;;;1.90;;
10761;SDS011;5433;50.862;4.320;2022-12-20T09:03:06;5.22;;;2.10;;
10761;SDS011;5433;50.862;4.320;2022-12-20T09:05:33;2.83;;;2.05;;
10761;SDS011;5433;50.862;4.320;2022-12-20T09:07:59;3.20;;;1.88;;
10761;SDS011;5433;50.862;4.320;2022-12-20T09:10:25;4.53;;;2.17;;
10761;SDS011;5433;50.862;4.320;2022-12-20T09:12:51;5.13;;;2.30;;
10761;SDS011;5433;50.862;4.320;2022-12-20T09:15:18;3.00;;;1.80;;
10761;SDS011;5433;50.862;4.320;2022-12-20T09:17:44;4.80;;;2.10;;
10761;SDS011;5433;50.862;4.320;2022-12-20T09:20:11;5.65;;;2.28;;
10761;SDS011;5433;50.862;4.320;2022-12-20T09:22:37;5.95;;;4.15;;
10761;SDS011;5433;50.862;4.320;2022-12-20T09:25:03;4.15;;;2.30;;
10761;SDS011;5433;50.862;4.320;2022-12-20T09:27:41;3.95;;;2.10;;
10761;SDS011;5433;50.862;4.320;2022-12-20T09:30:07;2.63;;;2.13;;
10761;SDS011;5433;50.862;4.320;2022-12-20T09:32:33;4.85;;;2.50;;
10761;SDS011;5433;50.862;4.320;2022-12-20T09:35:05;4.55;;;2.05;;
10761;SDS011;5433;50.862;4.320;2022-12-20T09:37:34;3.10;;;2.20;;
10761;SDS011;5433;50.862;4.320;2022-12-20T09:40:00;3.42;;;1.65;;
10761;SDS011;5433;50.862;4.320;2022-12-20T09:42:26;3.08;;;2.20;;
10761;SDS011;5433;50.862;4.320;2022-12-20T09:45:00;3.50;;;2.00;;
10761;SDS011;5433;50.862;4.320;2022-12-20T09:47:27;5.65;;;2.28;;
10761;SDS011;5433;50.862;4.320;2022-12-20T09:49:54;4.10;;;2.13;;
10761;SDS011;5433;50.862;4.320;2022-12-20T10:00:24;3.20;;;2.17;;
10761;SDS011;5433;50.862;4.320;2022-12-20T10:02:50;5.05;;;2.25;;
10761;SDS011;5433;50.862;4.320;2022-12-20T10:05:19;4.32;;;2.30;;
10761;SDS011;5433;50.862;4.320;2022-12-20T10:10:56;3.47;;;2.30;;
10761;SDS011;5433;50.862;4.320;2022-12-20T10:14:00;3.58;;;2.38;;
10761;SDS011;5433;50.862;4.320;2022-12-20T10:21:47;4.55;;;2.38;;
10761;SDS011;5433;50.862;4.320;2022-12-20T10:24:18;6.10;;;2.67;;
10761;SDS011;5433;50.862;4.320;2022-12-20T10:26:45;4.18;;;2.40;;
10761;SDS011;5433;50.862;4.320;2022-12-20T10:29:13;4.63;;;2.50;;
10761;SDS011;5433;50.862;4.320;2022-12-20T10:31:39;6.13;;;2.75;;
10761;SDS011;5433;50.862;4.320;2022-12-20T10:34:05;5.95;;;2.47;;
10761;SDS011;5433;50.862;4.320;2022-12-20T10:36:33;5.82;;;2.47;;
10761;SDS011;5433;50.862;4.320;2022-12-20T10:39:01;3.53;;;2.40;;
10761;SDS011;5433;50.862;4.320;2022-12-20T10:41:28;3.58;;;2.22;;
10761;SDS011;5433;50.862;4.320;2022-12-20T10:43:57;4.50;;;2.50;;
10761;SDS011;5433;50.862;4.320;2022-12-20T10:46:34;4.93;;;2.42;;
10761;SDS011;5433;50.862;4.320;2022-12-20T10:49:20;4.72;;;2.33;;
10761;SDS011;5433;50.862;4.320;2022-12-20T10:51:53;5.10;;;2.42;;
10761;SDS011;5433;50.862;4.320;2022-12-20T10:54:30;3.83;;;2.40;;
10761;SDS011;5433;50.862;4.320;2022-12-20T10:56:57;6.97;;;2.72;;
10761;SDS011;5433;50.862;4.320;2022-12-20T10:59:27;5.05;;;2.88;;
10761;SDS011;5433;50.862;4.320;2022-12-20T11:01:57;4.40;;;2.80;;
10761;SDS011;5433;50.862;4.320;2022-12-20T11:04:25;4.32;;;2.95;;
10761;SDS011;5433;50.862;4.320;2022-12-20T11:06:52;7.45;;;3.10;;
10761;SDS011;5433;50.862;4.320;2022-12-20T11:14:29;5.95;;;2.92;;
10761;SDS011;5433;50.862;4.320;2022-12-20T11:16:56;5.47;;;3.05;;
10761;SDS011;5433;50.862;4.320;2022-12-20T11:21:56;4.80;;;2.83;;
10761;SDS011;5433;50.862;4.320;2022-12-20T11:27:24;5.78;;;2.60;;
10761;SDS011;5433;50.862;4.320;2022-12-20T11:30:11;6.25;;;2.72;;
10761;SDS011;5433;50.862;4.320;2022-12-20T11:32:41;4.43;;;2.70;;
10761;SDS011;5433;50.862;4.320;2022-12-20T11:42:58;3.75;;;2.92;;
10761;SDS011;5433;50.862;4.320;2022-12-20T11:51:02;4.70;;;2.88;;
10761;SDS011;5433;50.862;4.320;2022-12-20T11:53:36;4.88;;;2.95;;
10761;SDS011;5433;50.862;4.320;2022-12-20T11:56:16;5.03;;;2.95;;
10761;SDS011;5433;50.862;4.320;2022-12-20T12:01:17;4.35;;;3.10;;
10761;SDS011;5433;50.862;4.320;2022-12-20T12:04:08;3.97;;;2.78;;
10761;SDS011;5433;50.862;4.320;2022-12-20T12:06:35;5.38;;;2.70;;
10761;SDS011;5433;50.862;4.320;2022-12-20T12:11:49;5.47;;;2.70;;
10761;SDS011;5433;50.862;4.320;2022-12-20T12:14:52;4.82;;;2.70;;
10761;SDS011;5433;50.862;4.320;2022-12-20T12:17:11;3.42;;;2.70;;
10761;SDS011;5433;50.862;4.320;2022-12-20T12:19:39;5.22;;;3.30;;
10761;SDS011;5433;50.862;4.320;2022-12-20T12:22:08;4.82;;;2.80;;
10761;SDS011;5433;50.862;4.320;2022-12-20T12:24:40;6.68;;;3.42;;
10761;SDS011;5433;50.862;4.320;2022-12-20T12:27:19;4.07;;;3.00;;
10761;SDS011;5433;50.862;4.320;2022-12-20T12:29:46;4.57;;;3.10;;
10761;SDS011;5433;50.862;4.320;2022-12-20T12:35:44;6.00;;;2.95;;
10761;SDS011;5433;50.862;4.320;2022-12-20T12:45:46;5.82;;;3.00;;
10761;SDS011;5433;50.862;4.320;2022-12-20T12:48:20;4.82;;;2.97;;
10761;SDS011;5433;50.862;4.320;2022-12-20T12:50:49;5.35;;;3.17;;
10761;SDS011;5433;50.862;4.320;2022-12-20T12:55:46;8.15;;;3.25;;
10761;SDS011;5433;50.862;4.320;2022-12-20T13:00:55;4.80;;;3.35;;
10761;SDS011;5433;50.862;4.320;2022-12-20T13:08:48;6.15;;;3.60;;
10761;SDS011;5433;50.862;4.320;2022-12-20T13:11:27;6.22;;;3.58;;
10761;SDS011;5433;50.862;4.320;2022-12-20T13:16:39;6.45;;;3.40;;
10761;SDS011;5433;50.862;4.320;2022-12-20T13:21:38;6.22;;;3.33;;
10761;SDS011;5433;50.862;4.320;2022-12-20T13:26:50;6.03;;;3.58;;
10761;SDS011;5433;50.862;4.320;2022-12-20T13:29:22;6.82;;;3.80;;
10761;SDS011;5433;50.862;4.320;2022-12-20T13:31:48;4.10;;;3.03;;
10761;SDS011;5433;50.862;4.320;2022-12-20T13:36:59;7.55;;;3.42;;
10761;SDS011;5433;50.862;4.320;2022-12-20T13:39:29;5.90;;;3.45;;
10761;SDS011;5433;50.862;4.320;2022-12-20T13:44:53;5.53;;;3.22;;
10761;SDS011;5433;50.862;4.320;2022-12-20T13:47:30;5.32;;;3.90;;
10761;SDS011;5433;50.862;4.320;2022-12-20T13:50:00;6.53;;;3.80;;
10761;SDS011;5433;50.862;4.320;2022-12-20T13:52:29;6.32;;;3.88;;
10761;SDS011;5433;50.862;4.320;2022-12-20T13:54:59;8.70;;;4.40;;
10761;SDS011;5433;50.862;4.320;2022-12-20T13:57:42;4.68;;;3.50;;
10761;SDS011;5433;50.862;4.320;2022-12-20T14:02:42;5.80;;;3.85;;
10761;SDS011;5433;50.862;4.320;2022-12-20T14:05:13;5.35;;;3.90;;
10761;SDS011;5433;50.862;4.320;2022-12-20T14:07:39;5.40;;;4.03;;
10761;SDS011;5433;50.862;4.320;2022-12-20T14:10:18;6.68;;;4.30;;
10761;SDS011;5433;50.862;4.320;2022-12-20T14:12:45;8.32;;;4.07;;
10761;SDS011;5433;50.862;4.320;2022-12-20T14:15:24;5.68;;;4.32;;
10761;SDS011;5433;50.862;4.320;2022-12-20T14:17:51;6.43;;;4.40;;
10761;SDS011;5433;50.862;4.320;2022-12-20T14:20:20;6.50;;;4.45;;
10761;SDS011;5433;50.862;4.320;2022-12-20T14:22:54;5.35;;;4.47;;
10761;SDS011;5433;50.862;4.320;2022-12-20T14:25:55;7.18;;;4.57;;
10761;SDS011;5433;50.862;4.320;2022-12-20T14:28:20;9.23;;;4.47;;
10761;SDS011;5433;50.862;4.320;2022-12-20T14:30:48;8.05;;;4.50;;
10761;SDS011;5433;50.862;4.320;2022-12-20T14:33:23;7.43;;;4.53;;
10761;SDS011;5433;50.862;4.320;2022-12-20T14:35:52;10.32;;;4.85;;
10761;SDS011;5433;50.862;4.320;2022-12-20T14:38:36;6.28;;;4.63;;
10761;SDS011;5433;50.862;4.320;2022-12-20T14:41:03;7.93;;;4.45;;
10761;SDS011;5433;50.862;4.320;2022-12-20T14:43:33;8.98;;;4.65;;
10761;SDS011;5433;50.862;4.320;2022-12-20T14:46:33;6.57;;;4.50;;
10761;SDS011;5433;50.862;4.320;2022-12-20T14:49:12;5.45;;;4.28;;
10761;SDS011;5433;50.862;4.320;2022-12-20T14:51:40;5.85;;;4.75;;
10761;SDS011;5433;50.862;4.320;2022-12-20T14:54:11;7.38;;;4.53;;
10761;SDS011;5433;50.862;4.320;2022-12-20T14:56:43;7.43;;;4.40;;
10761;SDS011;5433;50.862;4.320;2022-12-20T14:59:14;8.45;;;4.40;;
10761;SDS011;5433;50.862;4.320;2022-12-20T15:01:41;7.32;;;4.68;;
10761;SDS011;5433;50.862;4.320;2022-12-20T15:06:45;5.25;;;4.40;;
10761;SDS011;5433;50.862;4.320;2022-12-20T15:09:16;5.90;;;4.57;;
10761;SDS011;5433;50.862;4.320;2022-12-20T15:11:42;9.18;;;5.20;;
10761;SDS011;5433;50.862;4.320;2022-12-20T15:14:32;5.95;;;4.70;;
10761;SDS011;5433;50.862;4.320;2022-12-20T15:16:55;7.45;;;4.75;;
10761;SDS011;5433;50.862;4.320;2022-12-20T15:19:22;8.00;;;4.55;;
10761;SDS011;5433;50.862;4.320;2022-12-20T15:21:48;5.57;;;4.68;;
10761;SDS011;5433;50.862;4.320;2022-12-20T15:24:16;5.85;;;4.88;;
10761;SDS011;5433;50.862;4.320;2022-12-20T15:26:43;6.43;;;4.80;;
10761;SDS011;5433;50.862;4.320;2022-12-20T15:29:17;6.63;;;4.47;;
10761;SDS011;5433;50.862;4.320;2022-12-20T15:31:43;7.60;;;4.60;;
10761;SDS011;5433;50.862;4.320;2022-12-20T15:34:24;6.30;;;4.68;;
10761;SDS011;5433;50.862;4.320;2022-12-20T15:36:50;6.57;;;4.65;;
10761;SDS011;5433;50.862;4.320;2022-12-20T15:39:16;6.20;;;4.53;;
10761;SDS011;5433;50.862;4.320;2022-12-20T15:41:45;7.40;;;5.13;;
10761;SDS011;5433;50.862;4.320;2022-12-20T15:44:13;7.35;;;5.07;;
10761;SDS011;5433;50.862;4.320;2022-12-20T15:46:39;7.65;;;5.25;;
10761;SDS011;5433;50.862;4.320;2022-12-20T15:49:08;5.88;;;5.20;;
10761;SDS011;5433;50.862;4.320;2022-12-20T15:54:28;6.78;;;4.85;;
10761;SDS011;5433;50.862;4.320;2022-12-20T15:56:55;6.35;;;4.95;;
10761;SDS011;5433;50.862;4.320;2022-12-20T15:59:21;6.10;;;5.22;;
10761;SDS011;5433;50.862;4.320;2022-12-20T16:01:47;7.13;;;5.38;;
10761;SDS011;5433;50.862;4.320;2022-12-20T16:04:14;7.28;;;4.80;;
10761;SDS011;5433;50.862;4.320;2022-12-20T16:06:41;6.40;;;5.05;;
10761;SDS011;5433;50.862;4.320;2022-12-20T16:09:08;8.05;;;5.05;;
10761;SDS011;5433;50.862;4.320;2022-12-20T16:11:34;8.85;;;5.28;;
10761;SDS011;5433;50.862;4.320;2022-12-20T16:14:00;7.15;;;5.18;;
10761;SDS011;5433;50.862;4.320;2022-12-20T16:16:27;8.50;;;5.50;;
10761;SDS011;5433;50.862;4.320;2022-12-20T16:18:53;6.05;;;5.45;;
10761;SDS011;5433;50.862;4.320;2022-12-20T16:21:23;7.35;;;5.70;;
10761;SDS011;5433;50.862;4.320;2022-12-20T16:23:50;7.55;;;5.22;;
10761;SDS011;5433;50.862;4.320;2022-12-20T16:26:20;8.30;;;5.60;;
10761;SDS011;5433;50.862;4.320;2022-12-20T16:28:47;7.63;;;5.53;;
10761;SDS011;5433;50.862;4.320;2022-12-20T16:33:52;7.18;;;5.72;;
10761;SDS011;5433;50.862;4.320;2022-12-20T16:36:18;8.80;;;5.70;;
10761;SDS011;5433;50.862;4.320;2022-12-20T16:38:44;8.45;;;5.63;;
10761;SDS011;5433;50.862;4.320;2022-12-20T16:41:11;8.75;;;6.10;;
10761;SDS011;5433;50.862;4.320;2022-12-20T16:43:39;7.50;;;5.85;;
10761;SDS011;5433;50.862;4.320;2022-12-20T16:46:05;9.20;;;6.13;;
10761;SDS011;5433;50.862;4.320;2022-12-20T16:48:31;8.07;;;6.05;;
10761;SDS011;5433;50.862;4.320;2022-12-20T16:50:57;8.02;;;6.30;;
10761;SDS011;5433;50.862;4.320;2022-12-20T16:53:23;7.72;;;6.10;;
10761;SDS011;5433;50.862;4.320;2022-12-20T16:55:49;8.88;;;6.07;;